< < Back
Terminal Aerodrome Forecast


Current Version              Previous Versions:   1  2  3  4  5  6  7  8  9  

Terminal Aerodrome Forecast

018
FTUS42 KFFC 070527
TAFCSG
TAF
KCSG 070527Z 0706/0806 36004KT P6SM SCT250
     FM071600 33011G17KT P6SM SCT250
     FM072200 31006KT P6SM SCT250=

Latest METAR

310
SAUS70 KWBC 070754
MTRCSG
METAR KCSG 070751Z AUTO 35006KT 10SM CLR 03/M07 A3016 RMK AO2 SLP214
T00281072


USA.gov is the U.S. government's official web portal to all federal, state and local government web resources and services.